Time;durP1;ratioP1;P1;durP2;ratioP2;P2;SDS_P1;SDS_P2;PMS_P1;PMS_P2;Temp;Humidity;BMP_temperature;BMP_pressure;BME280_temperature;BME280_humidity;BME280_pressure;Samples;Min_cycle;Max_cycle;Signal;HPM_P1;HPM_P2
2023/07/03 00:00:15;;;;;;;1.15;1.05;;;;;;;22.90;46.90;99473.66;4459738;31;32684;-88
2023/07/03 00:02:43;;;;;;;1.33;1.23;;;;;;;22.91;46.86;99470.81;4462867;31;32156;-88
2023/07/03 00:05:10;;;;;;;0.32;0.32;;;;;;;22.78;47.27;99474.84;4483430;31;31891;-88
2023/07/03 00:07:39;;;;;;;1.08;0.30;;;;;;;23.03;46.40;99474.13;4467789;31;33146;-90
2023/07/03 00:10:08;;;;;;;2.60;1.15;;;;;;;22.91;46.67;99476.19;4470780;31;33744;-88
2023/07/03 00:12:36;;;;;;;0.98;0.55;;;;;;;22.80;46.93;99480.94;4449347;31;33867;-89
2023/07/03 00:15:04;;;;;;;0.60;0.22;;;;;;;22.72;46.97;99487.09;4469383;31;33084;-88
2023/07/03 00:17:33;;;;;;;0.20;0.20;;;;;;;22.46;47.87;99486.97;4484029;31;34677;-89
2023/07/03 00:20:01;;;;;;;0.20;0.20;;;;;;;22.39;48.25;99485.88;4462986;31;32111;-88
2023/07/03 00:22:28;;;;;;;0.95;0.50;;;;;;;22.20;48.83;99493.03;4463709;31;33169;-89
2023/07/03 00:24:56;;;;;;;0.50;0.50;;;;;;;22.04;49.63;99487.44;4485863;31;33449;-88
2023/07/03 00:27:24;;;;;;;0.22;0.22;;;;;;;22.19;49.38;99495.88;4492889;31;34591;-88
2023/07/03 00:29:51;;;;;;;6.80;0.50;;;;;;;22.13;49.45;99494.66;4473125;31;32684;-84
2023/07/03 00:32:19;;;;;;;0.77;0.28;;;;;;;22.00;49.73;99499.47;4484115;31;31998;-85
2023/07/03 00:34:47;;;;;;;0.62;0.50;;;;;;;22.10;49.44;99500.28;4482491;31;33592;-85
2023/07/03 00:37:15;;;;;;;6.72;0.73;;;;;;;21.90;49.79;99496.81;4489250;31;33501;-84
2023/07/03 00:39:44;;;;;;;0.50;0.50;;;;;;;21.97;49.56;99502.44;4486270;31;32733;-85
2023/07/03 00:42:11;;;;;;;4.20;1.42;;;;;;;21.89;49.97;99499.66;4484844;31;33907;-85
2023/07/03 00:44:39;;;;;;;0.43;0.43;;;;;;;21.80;50.47;99506.75;4470515;31;33388;-85
2023/07/03 00:47:09;;;;;;;0.65;0.65;;;;;;;21.72;50.61;99504.78;4485667;31;33989;-85
2023/07/03 00:49:37;;;;;;;0.32;0.32;;;;;;;21.73;50.66;99506.47;4467046;31;33528;-85
2023/07/03 00:52:05;;;;;;;0.00;0.00;;;;;;;21.76;50.50;99509.88;4482518;31;34235;-86
2023/07/03 00:54:33;;;;;;;0.68;0.50;;;;;;;21.74;50.56;99504.63;4470278;31;31938;-85
2023/07/03 00:57:00;;;;;;;0.20;0.20;;;;;;;21.69;50.76;99510.44;4487078;31;34167;-85
2023/07/03 00:59:28;;;;;;;0.55;0.37;;;;;;;21.73;50.71;99509.16;4472923;31;33612;-85
2023/07/03 01:02:18;;;;;;;1.23;0.80;;;;;;;21.68;50.78;99508.75;4488982;31;32631;-85
2023/07/03 01:05:16;;;;;;;0.50;0.50;;;;;;;21.68;50.91;99508.75;4470905;31;33122;-85
2023/07/03 01:07:47;;;;;;;1.65;1.02;;;;;;;21.59;51.35;99508.78;4492112;31;33911;-86
2023/07/03 01:10:18;;;;;;;0.32;0.32;;;;;;;21.58;51.51;99515.16;4475724;31;32472;-85
2023/07/03 01:12:57;;;;;;;0.20;0.20;;;;;;;21.53;51.52;99512.03;4470285;31;33632;-85
2023/07/03 01:15:27;;;;;;;3.62;0.52;;;;;;;21.34;52.30;99513.75;4483907;31;33397;-85
2023/07/03 01:17:56;;;;;;;0.15;0.15;;;;;;;21.30;52.34;99504.25;4485091;31;34633;-85
2023/07/03 01:20:25;;;;;;;3.72;0.65;;;;;;;21.21;52.43;99524.75;4476025;31;33206;-85
2023/07/03 01:23:10;;;;;;;0.32;0.30;;;;;;;21.37;52.00;99523.38;4483862;31;32237;-85
2023/07/03 01:25:39;;;;;;;0.98;0.40;;;;;;;21.38;52.14;99520.53;4461276;31;32525;-85
2023/07/03 01:28:10;;;;;;;0.68;0.68;;;;;;;21.34;52.08;99512.91;4468281;31;33082;-86
2023/07/03 01:30:40;;;;;;;0.57;0.57;;;;;;;21.20;52.68;99512.31;4471822;31;34955;-87
2023/07/03 01:33:14;;;;;;;0.77;0.60;;;;;;;21.21;52.54;99511.31;4466798;31;35013;-86
2023/07/03 01:35:42;;;;;;;0.22;0.22;;;;;;;21.26;52.44;99518.09;4471695;31;31865;-86
2023/07/03 01:38:09;;;;;;;1.12;1.05;;;;;;;21.27;52.45;99503.69;4463587;31;33346;-86
2023/07/03 01:40:37;;;;;;;0.32;0.32;;;;;;;21.21;52.70;99510.47;4472732;31;32841;-86
2023/07/03 01:43:06;;;;;;;0.57;0.57;;;;;;;21.22;52.43;99512.16;4489036;31;33425;-87
2023/07/03 01:45:39;;;;;;;0.55;0.55;;;;;;;21.15;52.83;99506.53;4484215;31;33211;-85
2023/07/03 01:48:08;;;;;;;0.30;0.30;;;;;;;20.75;54.24;99508.47;4475628;31;33274;-87
2023/07/03 01:50:37;;;;;;;0.57;0.57;;;;;;;20.62;54.73;99501.53;4474012;31;34760;-86
2023/07/03 01:53:17;;;;;;;0.22;0.17;;;;;;;20.84;54.04;99502.25;4468909;31;32470;-87
2023/07/03 01:55:59;;;;;;;3.03;1.55;;;;;;;20.87;54.19;99508.22;4471726;31;34444;-87
2023/07/03 01:58:46;;;;;;;0.85;0.75;;;;;;;20.95;53.82;99503.00;4459927;31;33605;-87
2023/07/03 02:01:24;;;;;;;0.75;0.70;;;;;;;21.01;53.78;99515.00;4475173;31;33589;-87
2023/07/03 02:03:56;;;;;;;1.08;0.82;;;;;;;21.12;53.35;99504.13;4457754;31;32181;-86
2023/07/03 02:06:36;;;;;;;0.93;0.85;;;;;;;21.07;53.49;99514.44;4471771;31;31709;-85
2023/07/03 02:09:07;;;;;;;1.48;0.60;;;;;;;21.12;53.31;99512.16;4466809;31;32767;-86
2023/07/03 02:11:35;;;;;;;0.47;0.43;;;;;;;21.04;53.61;99504.00;4483458;31;33881;-86
2023/07/03 02:14:02;;;;;;;0.30;0.30;;;;;;;21.09;53.79;99501.72;4489161;31;32258;-86
2023/07/03 02:16:31;;;;;;;0.80;0.80;;;;;;;21.33;52.71;99497.78;4489738;31;34609;-87
2023/07/03 02:18:58;;;;;;;0.85;0.50;;;;;;;21.31;52.78;99499.75;4470598;31;34279;-86
2023/07/03 02:21:27;;;;;;;2.03;0.88;;;;;;;21.42;52.26;99508.53;4486036;31;33735;-86
2023/07/03 02:23:55;;;;;;;1.05;1.00;;;;;;;21.37;52.62;99507.28;4471898;31;34688;-86
2023/07/03 02:26:23;;;;;;;3.75;0.95;;;;;;;21.45;52.51;99512.75;4473751;31;30901;-88
2023/07/03 02:28:51;;;;;;;0.90;0.40;;;;;;;21.43;52.30;99509.38;4475055;31;32370;-88
2023/07/03 02:31:18;;;;;;;1.08;0.98;;;;;;;21.51;52.16;99504.13;4470138;31;31756;-88
2023/07/03 02:33:48;;;;;;;2.80;1.23;;;;;;;21.48;52.26;99512.47;4487512;31;34156;-88
2023/07/03 02:36:16;;;;;;;5.35;0.50;;;;;;;21.55;51.98;99508.22;4479909;31;31602;-88
2023/07/03 02:38:44;;;;;;;1.92;1.12;;;;;;;21.75;51.23;99521.63;4472210;31;33787;-87
2023/07/03 02:41:12;;;;;;;2.17;1.02;;;;;;;21.70;51.37;99520.22;4473833;31;33215;-87
2023/07/03 02:43:39;;;;;;;0.82;0.45;;;;;;;21.63;51.49;99516.41;4482603;31;33052;-87
2023/07/03 02:46:08;;;;;;;2.03;0.82;;;;;;;21.76;51.16;99509.88;4483313;31;32604;-87
2023/07/03 02:48:36;;;;;;;2.65;0.62;;;;;;;21.81;50.87;99503.06;4483214;31;33249;-87
2023/07/03 02:51:04;;;;;;;0.93;0.88;;;;;;;21.73;51.17;99514.53;4469528;31;32993;-87
2023/07/03 02:53:33;;;;;;;0.03;0.03;;;;;;;21.64;51.62;99512.72;4487515;31;33414;-87
2023/07/03 02:56:01;;;;;;;0.73;0.73;;;;;;;21.62;51.64;99514.72;4476194;31;33714;-87
2023/07/03 02:58:29;;;;;;;1.15;0.75;;;;;;;21.60;51.87;99514.03;4455652;31;33259;-86
2023/07/03 03:00:57;;;;;;;1.40;0.68;;;;;;;21.71;51.27;99519.22;4461571;31;33432;-86
2023/07/03 03:03:25;;;;;;;1.48;1.17;;;;;;;21.88;50.65;99527.50;4487487;31;33991;-86
2023/07/03 03:05:55;;;;;;;0.45;0.45;;;;;;;21.91;50.58;99532.59;4469665;31;32691;-86
2023/07/03 03:08:23;;;;;;;0.60;0.60;;;;;;;21.70;51.45;99535.50;4475158;31;33497;-86
2023/07/03 03:10:54;;;;;;;1.10;1.05;;;;;;;21.73;51.50;99538.72;4468168;31;32485;-87
2023/07/03 03:13:22;;;;;;;1.87;1.48;;;;;;;21.71;51.30;99535.34;4472249;31;33982;-87
2023/07/03 03:15:51;;;;;;;0.75;0.75;;;;;;;21.64;51.74;99533.38;4449078;31;33527;-86
2023/07/03 03:18:19;;;;;;;0.40;0.40;;;;;;;21.53;52.12;99525.47;4485734;31;34499;-86
2023/07/03 03:20:47;;;;;;;0.20;0.20;;;;;;;21.44;52.31;99527.19;4468998;31;32729;-86
2023/07/03 03:23:15;;;;;;;1.92;1.45;;;;;;;21.38;52.70;99525.06;4490541;31;34504;-85
2023/07/03 03:25:43;;;;;;;0.80;0.75;;;;;;;21.62;51.69;99527.31;4480927;31;32893;-86
2023/07/03 03:28:10;;;;;;;0.82;0.82;;;;;;;21.70;51.28;99530.97;4481711;31;33531;-86
2023/07/03 03:30:38;;;;;;;1.60;0.95;;;;;;;21.59;51.74;99528.41;4472269;31;34069;-86
2023/07/03 03:33:06;;;;;;;2.00;1.30;;;;;;;21.60;51.83;99531.94;4482130;31;33946;-85
2023/07/03 03:35:34;;;;;;;1.42;0.85;;;;;;;21.55;52.31;99536.91;4482725;31;35033;-84
2023/07/03 03:38:01;;;;;;;0.43;0.40;;;;;;;21.61;52.54;99533.66;4483591;31;33528;-85
2023/07/03 03:40:29;;;;;;;0.40;0.40;;;;;;;21.35;53.18;99534.25;4484633;31;33800;-85
2023/07/03 03:42:58;;;;;;;1.00;0.93;;;;;;;21.52;52.57;99530.00;4485756;31;32922;-85
2023/07/03 03:45:26;;;;;;;2.12;1.10;;;;;;;21.87;51.12;99534.72;4460576;31;31851;-85
2023/07/03 03:47:54;;;;;;;0.35;0.35;;;;;;;21.70;52.24;99543.56;4479299;31;33455;-84
2023/07/03 03:50:21;;;;;;;0.75;0.73;;;;;;;21.83;51.53;99540.53;4472407;31;32289;-85
2023/07/03 03:52:49;;;;;;;0.35;0.35;;;;;;;21.94;51.39;99545.75;4488279;31;33618;-85
2023/07/03 03:55:17;;;;;;;1.25;1.12;;;;;;;22.04;51.41;99541.19;4481065;31;33507;-85
2023/07/03 03:57:48;;;;;;;0.85;0.85;;;;;;;22.16;51.26;99545.41;4486449;31;33429;-85
2023/07/03 04:00:16;;;;;;;0.80;0.77;;;;;;;22.34;50.87;99547.34;4483315;31;34049;-85
2023/07/03 04:02:45;;;;;;;0.60;0.60;;;;;;;22.41;50.77;99548.47;4469967;31;31209;-85
2023/07/03 04:05:12;;;;;;;0.75;0.75;;;;;;;22.58;50.50;99544.09;4484726;31;33086;-85
2023/07/03 04:07:40;;;;;;;1.15;0.60;;;;;;;22.85;49.73;99544.09;4485151;31;33385;-85
2023/07/03 04:10:09;;;;;;;0.68;0.68;;;;;;;23.08;48.69;99558.00;4491183;31;33235;-85
2023/07/03 04:12:37;;;;;;;1.10;0.73;;;;;;;23.22;48.51;99553.94;4486128;31;32461;-86
2023/07/03 04:15:05;;;;;;;0.70;0.70;;;;;;;23.20;48.61;99555.91;4485717;31;32257;-86
2023/07/03 04:17:33;;;;;;;1.75;1.45;;;;;;;23.19;48.47;99559.63;4475070;31;32223;-85
2023/07/03 04:20:01;;;;;;;1.65;1.17;;;;;;;23.40;48.01;99561.97;4495895;31;33792;-85
2023/07/03 04:22:28;;;;;;;0.55;0.55;;;;;;;23.52;47.69;99571.53;4475726;31;33083;-86
2023/07/03 04:24:56;;;;;;;0.57;0.57;;;;;;;23.63;47.17;99563.19;4490872;31;33109;-86
2023/07/03 04:27:23;;;;;;;0.73;0.70;;;;;;;23.73;46.89;99573.91;4473085;31;32500;-86
2023/07/03 04:29:51;;;;;;;0.20;0.20;;;;;;;23.94;46.63;99568.19;4484868;31;33963;-85
2023/07/03 04:32:19;;;;;;;0.90;0.57;;;;;;;23.84;46.44;99562.06;4488906;31;33476;-86
2023/07/03 04:34:46;;;;;;;2.92;1.27;;;;;;;23.82;46.22;99564.03;4485532;31;33799;-86
2023/07/03 04:37:14;;;;;;;0.50;0.50;;;;;;;23.87;46.31;99564.41;4482128;31;34573;-86
2023/07/03 04:39:42;;;;;;;3.50;1.80;;;;;;;23.96;45.98;99563.47;4488082;31;34332;-85
2023/07/03 04:42:13;;;;;;;0.40;0.40;;;;;;;24.13;46.72;99570.66;4473994;31;32353;-86
2023/07/03 04:44:41;;;;;;;0.20;0.20;;;;;;;24.48;45.33;99569.69;4484691;31;33200;-86
2023/07/03 04:47:09;;;;;;;1.23;1.23;;;;;;;24.26;45.85;99567.53;4461664;31;31816;-86
2023/07/03 04:49:37;;;;;;;0.62;0.60;;;;;;;23.95;46.04;99572.56;4484438;31;35221;-86
2023/07/03 04:52:05;;;;;;;1.23;1.17;;;;;;;24.04;46.22;99571.63;4484435;31;33873;-85
2023/07/03 04:54:33;;;;;;;1.10;1.00;;;;;;;24.27;45.62;99575.47;4484299;31;31977;-86
2023/07/03 04:57:00;;;;;;;0.52;0.52;;;;;;;24.45;45.43;99570.03;4475879;31;33130;-86
2023/07/03 04:59:28;;;;;;;11.15;1.17;;;;;;;24.60;45.13;99570.25;4484249;31;33643;-87
2023/07/03 05:01:56;;;;;;;0.45;0.45;;;;;;;24.62;44.28;99568.22;4480579;31;34117;-86
2023/07/03 05:04:23;;;;;;;2.42;0.45;;;;;;;24.82;44.32;99573.38;4483532;31;35688;-87
2023/07/03 05:06:51;;;;;;;2.20;0.65;;;;;;;24.90;44.86;99578.78;4473302;31;32281;-87
2023/07/03 05:09:19;;;;;;;0.45;0.45;;;;;;;24.82;44.61;99582.31;4469744;31;34219;-87
2023/07/03 05:11:49;;;;;;;0.70;0.70;;;;;;;24.94;44.53;99580.16;4470469;31;33810;-87
2023/07/03 05:14:17;;;;;;;2.25;0.70;;;;;;;25.02;43.88;99577.50;4473396;31;34611;-87
2023/07/03 05:16:45;;;;;;;0.85;0.73;;;;;;;25.15;44.18;99583.28;4474590;31;33508;-87
2023/07/03 05:19:13;;;;;;;2.65;0.88;;;;;;;25.37;43.21;99586.38;4473793;31;33237;-86
2023/07/03 05:21:41;;;;;;;8.93;1.25;;;;;;;25.50;43.06;99584.00;4469156;31;32220;-86
2023/07/03 05:24:09;;;;;;;0.45;0.45;;;;;;;25.70;43.73;99593.47;4480295;31;33446;-86
2023/07/03 05:26:36;;;;;;;1.15;0.93;;;;;;;25.50;42.65;99597.53;4469622;31;32854;-86
2023/07/03 05:29:04;;;;;;;3.20;0.98;;;;;;;25.75;42.68;99596.53;4482780;31;34440;-86
2023/07/03 05:31:31;;;;;;;0.62;0.60;;;;;;;26.04;42.94;99592.47;4466959;31;32333;-87
2023/07/03 05:33:59;;;;;;;0.90;0.90;;;;;;;26.00;43.04;99594.66;4471644;31;33066;-87
2023/07/03 05:36:27;;;;;;;1.45;1.35;;;;;;;26.11;42.40;99601.59;4465631;31;33215;-87
2023/07/03 05:38:54;;;;;;;0.40;0.40;;;;;;;26.35;41.83;99608.81;4482437;31;34427;-86
2023/07/03 05:41:23;;;;;;;1.23;0.52;;;;;;;26.27;39.82;99604.25;4483635;31;34511;-87
2023/07/03 05:43:50;;;;;;;0.47;0.22;;;;;;;25.96;40.86;99611.41;4466667;31;34045;-87
2023/07/03 05:46:18;;;;;;;4.65;0.85;;;;;;;26.43;42.31;99610.66;4476114;31;32823;-87
2023/07/03 05:48:46;;;;;;;0.55;0.55;;;;;;;26.48;40.72;99617.25;4466721;31;32300;-87
2023/07/03 05:51:14;;;;;;;2.22;0.65;;;;;;;26.43;40.32;99607.97;4480547;31;33840;-86
2023/07/03 05:53:42;;;;;;;1.12;0.90;;;;;;;26.33;40.54;99615.41;4465997;31;33716;-86
2023/07/03 05:56:09;;;;;;;0.50;0.50;;;;;;;26.44;39.54;99612.34;4465675;31;33786;-86
2023/07/03 05:58:37;;;;;;;0.10;0.10;;;;;;;26.55;39.20;99614.72;4475333;31;34506;-86
2023/07/03 06:01:04;;;;;;;0.37;0.30;;;;;;;26.68;39.29;99615.00;4476442;31;34338;-86
2023/07/03 06:03:32;;;;;;;1.42;0.73;;;;;;;27.09;39.19;99616.69;4476715;31;32753;-87
2023/07/03 06:06:00;;;;;;;0.37;0.37;;;;;;;26.94;38.65;99627.41;4480351;31;32040;-87
2023/07/03 06:08:28;;;;;;;1.83;0.40;;;;;;;27.11;39.41;99620.94;4460007;31;33922;-87
2023/07/03 06:10:55;;;;;;;1.35;1.17;;;;;;;27.25;38.08;99622.00;4476584;31;33746;-88
2023/07/03 06:13:23;;;;;;;0.70;0.57;;;;;;;27.67;38.53;99623.41;4476513;31;34664;-87
2023/07/03 06:15:50;;;;;;;0.45;0.45;;;;;;;27.65;38.59;99623.62;4467350;31;33263;-86
2023/07/03 06:18:19;;;;;;;0.77;0.70;;;;;;;27.70;37.18;99621.19;4477874;31;34736;-86
2023/07/03 06:20:47;;;;;;;1.15;0.68;;;;;;;27.77;37.25;99622.22;4454604;31;32196;-86
2023/07/03 06:23:15;;;;;;;1.17;0.95;;;;;;;27.53;37.83;99619.63;4464509;31;33169;-87
2023/07/03 06:25:43;;;;;;;0.35;0.35;;;;;;;27.10;38.75;99621.94;4459813;31;35397;-86
2023/07/03 06:28:11;;;;;;;1.25;0.75;;;;;;;27.27;38.64;99628.13;4479861;31;33663;-87
2023/07/03 06:30:39;;;;;;;2.08;1.15;;;;;;;27.70;39.51;99623.06;4470740;31;32811;-87
2023/07/03 06:33:06;;;;;;;2.65;0.60;;;;;;;27.93;38.43;99614.94;4469736;31;33125;-87
2023/07/03 06:35:34;;;;;;;0.40;0.40;;;;;;;27.84;38.49;99610.63;4470529;31;32741;-88
2023/07/03 06:38:03;;;;;;;0.70;0.37;;;;;;;27.97;39.49;99605.41;4466658;31;34625;-86
2023/07/03 06:40:31;;;;;;;1.55;0.77;;;;;;;28.03;37.82;99589.22;4454929;31;33109;-86
2023/07/03 06:42:58;;;;;;;0.40;0.40;;;;;;;28.17;37.40;99594.88;4480987;31;34306;-86
2023/07/03 06:45:27;;;;;;;0.43;0.43;;;;;;;28.01;37.10;99604.00;4470432;31;32784;-86
2023/07/03 06:47:54;;;;;;;0.98;0.15;;;;;;;28.24;31.15;99602.06;4471494;31;34435;-86
2023/07/03 06:50:22;;;;;;;1.75;1.65;;;;;;;28.10;34.50;99610.19;4475813;31;33509;-86
2023/07/03 06:52:50;;;;;;;1.83;0.82;;;;;;;28.48;34.74;99602.84;4462554;31;32462;-87
2023/07/03 06:55:18;;;;;;;5.35;1.20;;;;;;;28.88;30.04;99608.84;4475689;31;31658;-88
2023/07/03 06:57:46;;;;;;;0.98;0.80;;;;;;;28.97;28.68;99610.44;4467616;31;33659;-86
2023/07/03 07:00:14;;;;;;;0.80;0.77;;;;;;;28.12;29.62;99611.72;4461630;31;32952;-86
2023/07/03 07:02:42;;;;;;;1.75;1.27;;;;;;;28.82;28.39;99611.28;4462276;31;32422;-87
2023/07/03 07:05:10;;;;;;;1.58;1.12;;;;;;;28.71;28.48;99619.06;4470815;31;33296;-87
2023/07/03 07:07:40;;;;;;;0.77;0.75;;;;;;;29.23;24.83;99613.47;4470602;31;34434;-87
2023/07/03 07:10:08;;;;;;;0.73;0.73;;;;;;;29.38;25.55;99615.28;4470418;31;32691;-88
2023/07/03 07:12:38;;;;;;;1.58;1.48;;;;;;;29.42;26.07;99611.16;4457911;31;32195;-88
2023/07/03 07:15:07;;;;;;;1.27;0.93;;;;;;;29.25;26.50;99611.41;4467966;32;32182;-88
2023/07/03 07:17:35;;;;;;;1.55;1.12;;;;;;;29.67;25.88;99615.19;4464735;31;33803;-89
2023/07/03 07:20:13;;;;;;;1.35;1.23;;;;;;;29.70;26.58;99616.69;4467901;31;34208;-92
2023/07/03 07:22:42;;;;;;;0.90;0.90;;;;;;;30.05;25.15;99623.06;4457316;31;32670;-93
2023/07/03 07:25:09;;;;;;;0.98;0.98;;;;;;;29.88;25.53;99606.19;4466495;31;33885;-94
2023/07/03 07:27:37;;;;;;;0.50;0.50;;;;;;;30.13;24.86;99609.34;4449380;31;33049;-94
2023/07/03 07:30:06;;;;;;;1.42;1.33;;;;;;;30.15;25.64;99606.41;4476973;31;33815;-92
2023/07/03 07:32:36;;;;;;;0.50;0.40;;;;;;;29.75;27.55;99604.19;4462411;31;32439;-93
2023/07/03 07:35:07;;;;;;;1.05;0.77;;;;;;;30.21;26.82;99603.75;4470225;31;33413;-93
2023/07/03 07:37:35;;;;;;;5.35;1.58;;;;;;;30.18;27.33;99601.41;4465730;31;33282;-93
2023/07/03 07:40:03;;;;;;;4.15;1.40;;;;;;;30.20;25.54;99599.34;4469381;31;33864;-93
2023/07/03 07:42:35;;;;;;;2.42;1.45;;;;;;;30.40;27.53;99609.53;4473628;31;33826;-93
2023/07/03 07:45:06;;;;;;;3.55;1.90;;;;;;;30.52;24.76;99605.19;4458055;31;33664;-93
2023/07/03 07:47:33;;;;;;;1.45;1.25;;;;;;;30.36;26.52;99609.09;4477686;31;33129;-94
2023/07/03 07:50:02;;;;;;;1.37;1.08;;;;;;;30.60;26.49;99608.59;4468821;31;33265;-94
2023/07/03 07:52:30;;;;;;;0.93;0.93;;;;;;;30.39;26.82;99614.16;4466842;31;32949;-94
2023/07/03 07:54:58;;;;;;;7.97;1.42;;;;;;;30.36;28.10;99614.53;4465956;31;33552;-94
2023/07/03 07:57:29;;;;;;;1.45;1.35;;;;;;;30.65;26.59;99616.16;4457123;31;32548;-94
2023/07/03 07:59:57;;;;;;;1.15;1.08;;;;;;;30.77;26.98;99611.87;4468107;31;32979;-94
2023/07/03 08:02:27;;;;;;;1.55;1.02;;;;;;;30.88;27.13;99612.34;4463756;31;32467;-93
2023/07/03 08:04:56;;;;;;;0.65;0.65;;;;;;;30.39;27.12;99619.59;4468592;31;32747;-93
2023/07/03 08:07:24;;;;;;;5.68;1.58;;;;;;;30.40;28.12;99614.97;4469762;31;33629;-93
2023/07/03 08:09:52;;;;;;;1.55;0.73;;;;;;;30.56;26.93;99606.47;4462208;32;32505;-94
2023/07/03 08:12:20;;;;;;;1.58;1.20;;;;;;;30.74;26.49;99606.81;4452685;32;34108;-94
2023/07/03 08:14:48;;;;;;;2.47;1.02;;;;;;;30.97;26.85;99611.97;4471225;31;32593;-93
2023/07/03 08:17:16;;;;;;;1.40;1.15;;;;;;;31.19;26.27;99612.66;4462032;31;33368;-94
2023/07/03 08:19:44;;;;;;;1.23;1.05;;;;;;;31.32;26.86;99610.00;4479563;31;33742;-94
2023/07/03 08:22:12;;;;;;;0.90;0.85;;;;;;;31.22;26.46;99614.13;4468008;31;32623;-93
2023/07/03 08:24:39;;;;;;;2.10;1.90;;;;;;;31.85;26.78;99610.09;4469318;31;33056;-94
2023/07/03 08:27:07;;;;;;;2.58;1.77;;;;;;;30.89;27.87;99616.75;4463327;31;33388;-94
2023/07/03 08:29:35;;;;;;;1.55;0.98;;;;;;;31.19;26.39;99609.06;4468169;31;32395;-93
2023/07/03 08:32:03;;;;;;;0.25;0.25;;;;;;;31.40;26.91;99608.12;4482646;31;31969;-93
2023/07/03 08:34:31;;;;;;;1.40;1.30;;;;;;;31.84;26.76;99618.50;4452766;32;32444;-94
2023/07/03 08:36:59;;;;;;;4.60;2.10;;;;;;;31.91;26.06;99613.06;4474785;31;34139;-94
2023/07/03 08:39:30;;;;;;;5.78;1.98;;;;;;;31.54;25.73;99610.69;4471598;31;32441;-94
2023/07/03 08:42:23;;;;;;;1.95;1.42;;;;;;;31.29;27.45;99624.06;4461855;32;31946;-94
2023/07/03 08:44:51;;;;;;;2.75;1.92;;;;;;;31.46;27.11;99623.66;4465427;31;32431;-93
2023/07/03 08:47:22;;;;;;;2.30;1.70;;;;;;;31.34;25.80;99618.00;4469499;31;33355;-94
2023/07/03 08:49:51;;;;;;;4.03;1.17;;;;;;;31.60;24.91;99622.66;4467140;31;32847;-94
2023/07/03 08:52:36;;;;;;;3.03;2.67;;;;;;;31.50;24.99;99617.59;4470408;31;32165;-93
2023/07/03 08:55:07;;;;;;;6.20;2.28;;;;;;;31.71;24.15;99623.91;4444578;32;32546;-94
2023/07/03 08:57:36;;;;;;;3.43;1.83;;;;;;;31.89;23.30;99615.16;4452179;31;33785;-94
2023/07/03 09:00:11;;;;;;;3.15;2.00;;;;;;;31.41;22.98;99618.84;4455408;31;32990;-93
2023/07/03 09:02:52;;;;;;;2.03;1.00;;;;;;;31.36;24.35;99624.91;4462680;32;33132;-94
2023/07/03 09:05:46;;;;;;;3.95;2.78;;;;;;;31.58;23.21;99624.75;4463125;31;32823;-94
2023/07/03 09:08:22;;;;;;;2.45;2.25;;;;;;;31.76;23.41;99619.53;4460577;32;33323;-94
2023/07/03 09:10:49;;;;;;;1.83;1.73;;;;;;;31.68;22.57;99625.19;4461139;31;32568;-94
2023/07/03 09:13:23;;;;;;;4.05;1.77;;;;;;;31.65;23.29;99620.13;4458526;32;32378;-94
2023/07/03 09:16:11;;;;;;;5.72;1.92;;;;;;;31.49;24.47;99635.03;4457450;32;32257;-94
2023/07/03 09:18:45;;;;;;;3.47;2.08;;;;;;;31.85;23.41;99629.19;4482028;31;33210;-94
2023/07/03 09:21:13;;;;;;;3.40;1.40;;;;;;;31.87;23.14;99624.38;4467044;31;33776;-94
2023/07/03 09:24:02;;;;;;;2.70;1.73;;;;;;;31.59;23.95;99626.44;4455895;31;33186;-94
2023/07/03 09:27:00;;;;;;;1.25;1.15;;;;;;;31.76;24.84;99624.12;4465660;32;33931;-94
2023/07/03 09:29:29;;;;;;;5.50;1.70;;;;;;;31.89;24.75;99631.53;4466445;31;32926;-94
2023/07/03 09:31:56;;;;;;;4.45;2.03;;;;;;;32.20;23.43;99629.00;4473356;31;34138;-94
2023/07/03 09:34:24;;;;;;;3.37;1.60;;;;;;;32.33;22.83;99634.47;4471604;31;35273;-94
2023/07/03 09:37:00;;;;;;;1.10;1.10;;;;;;;32.35;22.24;99636.97;4475806;31;32909;-94
2023/07/03 09:39:30;;;;;;;2.15;1.23;;;;;;;32.09;22.88;99643.28;4463133;31;32989;-94
2023/07/03 09:42:06;;;;;;;2.40;2.30;;;;;;;32.15;22.81;99642.47;4460120;32;33616;-94
2023/07/03 09:44:40;;;;;;;1.92;1.17;;;;;;;31.71;22.56;99635.66;4431319;32;32429;-94
2023/07/03 09:47:17;;;;;;;2.22;1.27;;;;;;;31.79;22.56;99631.91;4471891;32;32940;-94
2023/07/03 09:49:45;;;;;;;6.53;2.47;;;;;;;31.75;23.55;99633.38;4459954;32;33002;-94
2023/07/03 09:52:14;;;;;;;2.53;1.60;;;;;;;32.39;23.22;99637.44;4453069;32;32889;-94
2023/07/03 09:54:43;;;;;;;4.62;1.77;;;;;;;32.47;22.87;99628.97;4456084;32;32500;-94
2023/07/03 09:57:24;;;;;;;2.40;1.77;;;;;;;32.23;21.90;99636.75;4457219;32;34372;-94
2023/07/03 10:00:14;;;;;;;1.33;1.23;;;;;;;32.23;23.27;99639.50;4449077;32;33514;-94
2023/07/03 10:02:43;;;;;;;2.37;2.03;;;;;;;32.13;23.13;99630.88;4464645;32;33833;-92
2023/07/03 10:05:19;;;;;;;3.73;2.53;;;;;;;32.30;23.34;99623.94;4465433;32;34053;-93
2023/07/03 10:07:55;;;;;;;2.70;2.03;;;;;;;31.69;23.19;99637.78;4465532;32;32658;-94
2023/07/03 10:10:27;;;;;;;0.75;0.70;;;;;;;32.13;23.62;99631.72;4452080;31;33127;-93
2023/07/03 10:13:17;;;;;;;3.85;1.87;;;;;;;32.48;22.58;99625.22;4457909;32;32664;-92
2023/07/03 10:15:46;;;;;;;5.90;2.72;;;;;;;32.76;23.37;99631.25;4445795;32;32707;-92
2023/07/03 10:18:23;;;;;;;5.47;3.10;;;;;;;32.87;22.66;99627.00;4460603;31;32717;-93
2023/07/03 10:20:51;;;;;;;9.68;1.55;;;;;;;33.03;21.51;99620.22;4460217;31;33033;-93
2023/07/03 10:23:30;;;;;;;1.83;1.73;;;;;;;31.91;21.57;99627.56;4463851;31;33794;-93
2023/07/03 10:26:05;;;;;;;2.10;1.52;;;;;;;32.66;21.22;99617.16;4479290;31;32345;-93
2023/07/03 10:28:52;;;;;;;1.12;1.02;;;;;;;32.99;21.16;99622.53;4479163;31;33040;-93
2023/07/03 10:31:35;;;;;;;2.20;1.83;;;;;;;32.74;22.21;99622.41;4480702;31;33657;-93
2023/07/03 10:34:10;;;;;;;5.05;2.10;;;;;;;32.52;21.51;99623.72;4480974;31;33116;-93
2023/07/03 10:36:39;;;;;;;1.80;1.67;;;;;;;33.00;21.98;99616.03;4460732;31;32234;-93
2023/07/03 10:39:32;;;;;;;1.83;0.70;;;;;;;33.11;21.43;99622.72;4460286;32;33951;-93
2023/07/03 10:42:19;;;;;;;1.67;1.25;;;;;;;32.75;22.31;99626.81;4458790;31;34244;-93
2023/07/03 10:45:05;;;;;;;0.95;0.95;;;;;;;32.67;22.75;99627.06;4494142;31;34148;-93
2023/07/03 10:47:56;;;;;;;10.18;1.87;;;;;;;32.61;22.97;99620.53;4471417;31;32717;-93
2023/07/03 10:50:35;;;;;;;;;;;;;;;33.02;21.93;99615.81;4471973;31;32582;-93
2023/07/03 10:53:15;;;;;;;4.90;2.42;;;;;;;32.64;22.12;99630.22;4473889;31;33131;-94
2023/07/03 10:56:04;;;;;;;1.87;1.40;;;;;;;32.79;22.26;99633.53;4457623;31;32765;-93
2023/07/03 10:58:38;;;;;;;5.15;1.73;;;;;;;33.05;25.47;99621.69;4453149;32;32466;-92
2023/07/03 11:01:28;;;;;;;3.50;2.15;;;;;;;32.95;23.17;99626.78;4474726;31;33337;-93
2023/07/03 11:04:19;;;;;;;3.22;2.03;;;;;;;33.22;22.27;99627.50;4469691;31;33605;-93
2023/07/03 11:07:31;;;;;;;2.40;2.05;;;;;;;33.32;22.36;99636.06;4484358;31;33192;-93
2023/07/03 11:10:10;;;;;;;1.00;1.00;;;;;;;33.19;23.66;99630.69;4488784;31;32431;-94
2023/07/03 11:12:53;;;;;;;1.55;1.45;;;;;;;33.16;23.57;99624.78;4463104;31;33285;-93
2023/07/03 11:15:43;;;;;;;2.83;1.58;;;;;;;33.60;22.66;99627.50;4457549;31;33546;-93
2023/07/03 11:18:48;;;;;;;3.22;1.95;;;;;;;33.13;24.08;99629.63;4485802;31;33897;-94
2023/07/03 11:21:54;;;;;;;3.00;1.62;;;;;;;33.45;22.83;99626.97;4465271;31;33230;-93
2023/07/03 11:24:44;;;;;;;1.35;1.00;;;;;;;33.63;22.84;99626.22;4450351;31;33306;-94
2023/07/03 11:27:11;;;;;;;0.52;0.52;;;;;;;33.53;22.38;99625.88;4467913;31;33693;-93
2023/07/03 11:29:42;;;;;;;1.12;1.08;;;;;;;33.42;23.62;99626.53;4486144;31;33453;-92
2023/07/03 11:32:10;;;;;;;0.65;0.65;;;;;;;33.52;23.58;99621.44;4471450;31;32945;-93
2023/07/03 11:34:41;;;;;;;1.67;1.58;;;;;;;33.53;23.99;99612.19;4465558;31;34248;-93
2023/07/03 11:37:31;;;;;;;;;;;;;;;33.36;23.31;99623.62;4475259;31;34346;-93
2023/07/03 11:40:38;;;;;;;2.45;1.48;;;;;;;33.77;22.92;99625.06;4474125;31;33197;-93
2023/07/03 11:43:09;;;;;;;1.98;1.85;;;;;;;33.38;22.10;99627.00;4466217;31;32437;-94
2023/07/03 11:45:39;;;;;;;1.73;1.52;;;;;;;33.37;23.44;99619.81;4481782;31;33015;-94
2023/07/03 11:48:29;;;;;;;1.45;1.23;;;;;;;33.41;22.99;99622.13;4478894;31;33088;-91
2023/07/03 11:51:03;;;;;;;7.12;1.90;;;;;;;33.00;23.88;99624.25;4461379;31;32539;-92
2023/07/03 11:53:32;;;;;;;5.55;2.20;;;;;;;32.81;23.43;99619.66;4466096;31;32283;-93